Nearby METAR Reports

 

KMTN - Baltimore/Martin, Maryland, USA
Distance from station: SSE 8mi, 13km
Updated: Tue, 22-Jul-2014 11:33pm EDT
Clear
Clear
 Wind from S
Wind: S 5 mph , 7 km/h
Temperature: 77°F , 25°C
Dew Point: 70°F , 21°C
Humidity: 79%
Barometer: 30.10 inHg , 1019.3 hPa
Clouds: Clear
Visibility: 10 miles , 16 km
2014/07/23 03:33 KMTN 230333Z AUTO 17004KT 10SM CLR 25/21 A3010 RMK AO2
KDMH - Baltimore/Dwntwn, Maryland, USA
Distance from station: SW 12mi, 19km
Updated: Tue, 22-Jul-2014 10:54pm EDT

 
Temperature: 79°F , 26°C
Dew Point: 64°F , 18°C
Humidity: 61%
Barometer: 30.09 inHg , 1019 hPa
2014/07/23 02:54 KDMH 230254Z AUTO 26/18 A3009 RMK AO1 SLP189 T02610178 53002
 
KBWI - Balto/Wash Intl, Maryland, USA
Distance from station: SSW 20mi, 33km
Updated: Tue, 22-Jul-2014 10:54pm EDT
Clear
Clear
 Wind from S
Wind: S 3 mph , 6 km/h
Temperature: 75°F , 24°C
Dew Point: 64°F , 18°C
Humidity: 69%
Barometer: 30.08 inHg , 1018.6 hPa
Clouds: Clear
Visibility: 10 miles , 16 km
2014/07/23 02:54 KBWI 230254Z 17003KT 10SM CLR 24/18 A3008 RMK AO2 SLP185 T02390178 50003
KDMW - Carroll Cnty, Maryland, USA
Distance from station: WNW 30mi, 48km
Updated: Tue, 22-Jul-2014 11:35pm EDT
Partly cloudy
Partly cloudy
 Wind from S
Wind: S 6 mph , 9 km/h
Temperature: 75°F , 24°C
Dew Point: 70°F , 21°C
Humidity: 83%
Barometer: 30.09 inHg , 1019 hPa
Clouds: Partly cloudy
Visibility: 10 miles , 16 km
Cloud details: Partly cloudy 7500 ft
Partly cloudy 9000 ft
2014/07/23 03:35 KDMW 230335Z AUTO 17005KT 10SM SCT075 SCT090 24/21 A3009 RMK AO2
 
KNAK - Annapolis/Naval, Maryland, USA
Distance from station: S 30mi, 48km
Updated: Tue, 22-Jul-2014 10:54pm EDT
Clear
Clear
 Wind from S
Wind: S 5 mph , 7 km/h
Temperature: 77°F , 25°C
Dew Point: 66°F , 19°C
Humidity: 69%
Barometer: 30.09 inHg , 1019 hPa
Clouds: Clear
Visibility: 10 miles , 16 km
2014/07/23 02:54 KNAK 230254Z AUTO 19004KT 10SM CLR 25/19 A3009 RMK AO2 SLP190 T02500194 50001
KW29 - Stevensville, Maryland, USA
Distance from station: SSE 31mi, 50km
Updated: Tue, 22-Jul-2014 11:34pm EDT

 Wind from S
Wind: S 5 mph , 7 km/h
Temperature: 77°F , 25°C
Dew Point: 66°F , 19°C
Humidity: 69%
Barometer: 30.08 inHg , 1018.6 hPa
Visibility: 10 miles , 16 km
2014/07/23 03:34 KW29 230334Z AUTO 17004KT 10SM 25/19 A3008 RMK AO1
 
KCGS - College Park, Maryland, USA
Distance from station: SW 38mi, 61km
Updated: Tue, 22-Jul-2014 11:35pm EDT
Clear
Clear
 Wind from calm
Wind: Calm
Temperature: 73°F , 23°C
Dew Point: 68°F , 20°C
Humidity: 83%
Barometer: 30.08 inHg , 1018.6 hPa
Clouds: Clear
Visibility: 10 miles , 16 km
2014/07/23 03:35 KCGS 230335Z AUTO 00000KT 10SM CLR 23/20 A3008 RMK AO1
KGAI - Gaithersburg, Maryland, USA
Distance from station: WSW 40mi, 65km
Updated: Tue, 22-Jul-2014 11:35pm EDT
Clear
Clear
 Wind from SSE
Wind: SSE 6 mph , 9 km/h
Temperature: 75°F , 24°C
Dew Point: 66°F , 19°C
Humidity: 74%
Barometer: 30.12 inHg , 1020 hPa
Clouds: Clear
Visibility: 10 miles , 16 km
2014/07/23 03:35 KGAI 230335Z AUTO 15005KT 10SM CLR 24/19 A3012 RMK AO1
 
KTHV - York, Pennsylvania, USA
Distance from station: NNW 40mi, 65km
Updated: Tue, 22-Jul-2014 10:53pm EDT
Clear
Clear
 Wind from S
Wind: S 3 mph , 6 km/h
Temperature: 75°F , 24°C
Dew Point: 68°F , 20°C
Humidity: 78%
Barometer: 30.09 inHg , 1019 hPa
Clouds: Clear
Visibility: 10 miles , 16 km
2014/07/23 02:53 KTHV 230253Z AUTO 19003KT 10SM CLR 24/20 A3009 RMK AO2 SLP187 T02390200 51003
KFDK - Frederick, Maryland, USA
Distance from station: W 47mi, 75km
Updated: Tue, 22-Jul-2014 11:35pm EDT
Partly cloudy
Partly cloudy
 Wind from S
Wind: S 3 mph , 6 km/h
Temperature: 73°F , 23°C
Dew Point: 73°F , 23°C
Humidity: 100%
Barometer: 30.09 inHg , 1019 hPa
Clouds: Partly cloudy
Visibility: 10 miles , 16 km
Cloud details: Partly cloudy 5000 ft
2014/07/23 03:35 KFDK 230335Z AUTO 17003KT 10SM SCT050 23/23 A3009 RMK AO2
 
KESN - Easton/Newnam, Maryland, USA
Distance from station: SSE 48mi, 78km
Updated: Tue, 22-Jul-2014 11:46pm EDT
Clear
Clear
 Wind from calm
Wind: Calm
Temperature: 75°F , 24°C
Dew Point: 66°F , 19°C
Humidity: 74%
Barometer: 30.13 inHg , 1020.3 hPa
Clouds: Clear
Visibility: 10 miles , 16 km
2014/07/23 03:46 KESN 230346Z AUTO 00000KT 10SM CLR 24/19 A3013 RMK AO2 T02380187
KDCA - Washington/Natl, Washington D.c., USA
Distance from station: SW 49mi, 79km
Updated: Tue, 22-Jul-2014 10:52pm EDT
Clear
Clear
 Wind from S
Wind: S 9 mph , 15 km/h
Temperature: 79°F , 26°C
Dew Point: 66°F , 19°C
Humidity: 65%
Barometer: 30.09 inHg , 1019 hPa
Clouds: Clear
Visibility: 10 miles , 16 km
2014/07/23 02:52 KDCA 230252Z 17008KT 10SM CLR 26/19 A3009 RMK AO2 SLP189 T02610194 50002
 
KLNS - Lancaster, Pennsylvania, USA
Distance from station: N 49mi, 79km
Updated: Tue, 22-Jul-2014 10:53pm EDT
Clear
Clear
 Wind from S
Wind: S 5 mph , 7 km/h
Temperature: 75°F , 24°C
Dew Point: 66°F , 19°C
Humidity: 74%
Barometer: 30.09 inHg , 1019 hPa
Clouds: Clear
Visibility: 10 miles , 16 km
2014/07/23 02:53 KLNS 230253Z 18004KT 10SM CLR 24/19 A3009 RMK AO2 SLP184 T02390189 58001
KILG - Wilmington, Delaware, USA
Distance from station: ENE 50mi, 81km
Updated: Tue, 22-Jul-2014 10:51pm EDT
Clear
Clear
 Wind from S
Wind: S 8 mph , 13 km/h
Temperature: 75°F , 24°C
Dew Point: 70°F , 21°C
Humidity: 83%
Barometer: 30.10 inHg , 1019.3 hPa
Clouds: Clear
Visibility: 10 miles , 16 km
2014/07/23 02:51 KILG 230251Z 17007KT 10SM CLR 24/21 A3010 RMK AO2 SLP190 T02440211 58002